Time;durP1;ratioP1;P1;durP2;ratioP2;P2;SDS_P1;SDS_P2;PMS_P1;PMS_P2;Temp;Humidity;BMP_temperature;BMP_pressure;BME280_temperature;BME280_humidity;BME280_pressure;Samples;Min_cycle;Max_cycle;Signal;HPM_P1;HPM_P2
2022/02/24 00:01:45;;;;;;;68.80;24.60;;;;;;;0.80;67.41;101066.87;105853;1273;22563;-59
2022/02/24 00:04:16;;;;;;;72.50;25.10;;;;;;;0.75;67.58;101071.04;105629;1273;25354;-58
2022/02/24 00:06:47;;;;;;;60.00;25.50;;;;;;;0.70;67.46;101071.11;105592;1273;25583;-58
2022/02/24 00:09:19;;;;;;;65.70;24.20;;;;;;;0.69;67.45;101074.27;105672;1273;22620;-59
2022/02/24 00:11:51;;;;;;;59.10;24.30;;;;;;;0.68;67.54;101071.35;105644;1273;24397;-58
2022/02/24 00:14:22;;;;;;;65.00;23.30;;;;;;;0.68;67.46;101072.92;105629;1273;24329;-57
2022/02/24 00:16:54;;;;;;;65.20;25.60;;;;;;;0.65;67.31;101067.51;105678;1273;25602;-56
2022/02/24 00:19:26;;;;;;;64.00;25.90;;;;;;;0.63;67.41;101062.95;105623;1273;22548;-58
2022/02/24 00:21:58;;;;;;;67.30;28.20;;;;;;;0.61;67.39;101062.41;105577;1273;24306;-57
2022/02/24 00:24:30;;;;;;;70.10;27.60;;;;;;;0.60;67.50;101062.78;105706;1273;22769;-57
2022/02/24 00:27:01;;;;;;;75.70;29.60;;;;;;;0.60;67.41;101069.15;105512;1273;22709;-58
2022/02/24 00:29:32;;;;;;;78.00;31.40;;;;;;;0.59;67.48;101068.14;105533;1271;22740;-57
2022/02/24 00:32:04;;;;;;;81.80;29.30;;;;;;;0.57;67.48;101061.15;105532;1273;22772;-58
2022/02/24 00:34:35;;;;;;;72.20;27.40;;;;;;;0.55;67.49;101060.11;105642;1273;22747;-58
2022/02/24 00:37:08;;;;;;;72.20;27.70;;;;;;;0.54;67.57;101061.67;105562;1273;22536;-58
2022/02/24 00:39:39;;;;;;;65.40;24.50;;;;;;;0.50;67.81;101061.13;105978;1273;25393;-59
2022/02/24 00:42:11;;;;;;;66.70;26.10;;;;;;;0.44;67.79;101058.86;105654;1273;23527;-58
2022/02/24 00:44:42;;;;;;;60.30;23.60;;;;;;;0.40;67.85;101056.58;105726;1273;25514;-56
2022/02/24 00:47:14;;;;;;;58.00;23.30;;;;;;;0.37;67.68;101050.20;105502;1273;22535;-58
2022/02/24 00:49:46;;;;;;;53.50;20.10;;;;;;;0.35;67.77;101054.98;105680;1273;24095;-58
2022/02/24 00:52:17;;;;;;;55.30;20.90;;;;;;;0.34;67.77;101053.27;105709;1273;22547;-57
2022/02/24 00:54:48;;;;;;;55.40;20.70;;;;;;;0.33;67.92;101050.20;105511;1273;23254;-57
2022/02/24 00:57:20;;;;;;;54.50;20.60;;;;;;;0.33;67.96;101044.31;105659;1273;22545;-58
2022/02/24 00:59:52;;;;;;;49.90;19.40;;;;;;;0.32;67.95;101040.00;105604;1273;25479;-57
2022/02/24 01:02:24;;;;;;;54.00;19.40;;;;;;;0.31;68.00;101040.55;105505;1273;24628;-58
2022/02/24 01:04:55;;;;;;;53.60;19.60;;;;;;;0.29;68.05;101044.39;105512;1273;24967;-58
2022/02/24 01:07:26;;;;;;;61.80;21.00;;;;;;;0.27;68.02;101039.99;105517;1273;24034;-58
2022/02/24 01:09:58;;;;;;;54.60;19.30;;;;;;;0.25;68.03;101033.86;105559;1273;22787;-58
2022/02/24 01:12:30;;;;;;;53.30;19.40;;;;;;;0.24;68.20;101031.43;105590;1273;25452;-58
2022/02/24 01:15:06;;;;;;;57.20;18.70;;;;;;;0.22;68.17;101027.66;105525;1273;23012;-59
2022/02/24 01:17:40;;;;;;;53.30;18.30;;;;;;;0.21;68.37;101024.14;105563;1273;22540;-58
2022/02/24 01:20:13;;;;;;;53.70;20.00;;;;;;;0.20;68.53;101019.51;105614;1273;25607;-57
2022/02/24 01:22:44;;;;;;;50.80;17.40;;;;;;;0.19;68.46;101015.27;105595;1273;22736;-56
2022/02/24 01:25:18;;;;;;;50.60;17.60;;;;;;;0.17;68.68;101015.10;105662;1273;25526;-58
2022/02/24 01:27:49;;;;;;;54.30;19.20;;;;;;;0.15;68.68;101015.27;105867;1273;22737;-58
2022/02/24 01:30:21;;;;;;;49.50;15.80;;;;;;;0.13;68.63;101004.03;105592;1272;25867;-58
2022/02/24 01:32:54;;;;;;;48.70;16.20;;;;;;;0.11;68.69;101003.34;105849;1273;22566;-57
2022/02/24 01:35:26;;;;;;;43.60;15.50;;;;;;;0.09;68.85;101004.04;105573;1274;25615;-57
2022/02/24 01:37:58;;;;;;;43.70;14.20;;;;;;;0.04;68.76;101003.71;106025;1273;22534;-58
2022/02/24 01:40:29;;;;;;;39.30;14.40;;;;;;;0.04;68.87;100993.83;105970;1273;22710;-58
2022/02/24 01:43:01;;;;;;;42.90;13.20;;;;;;;0.03;68.90;100985.27;105894;1273;23023;-59
2022/02/24 01:45:32;;;;;;;38.10;12.60;;;;;;;0.02;69.05;100985.43;105759;1270;24849;-60
2022/02/24 01:48:04;;;;;;;36.20;13.30;;;;;;;-0.01;68.86;100988.33;105645;1273;22567;-56
2022/02/24 01:50:38;;;;;;;46.50;15.40;;;;;;;-0.02;68.92;100986.76;105863;1273;25550;-57
2022/02/24 01:53:10;;;;;;;40.70;13.40;;;;;;;-0.05;69.19;100978.83;105647;1273;25538;-58
2022/02/24 01:55:42;;;;;;;44.40;14.90;;;;;;;-0.06;69.17;100980.39;105577;1273;24292;-57
2022/02/24 01:58:13;;;;;;;41.30;14.40;;;;;;;-0.08;68.96;100981.02;105606;1273;22635;-58
2022/02/24 02:00:44;;;;;;;48.90;16.80;;;;;;;-0.09;68.94;100973.96;105570;1273;22925;-57
2022/02/24 02:03:18;;;;;;;45.90;16.10;;;;;;;-0.09;68.87;100976.16;105495;1273;23288;-56
2022/02/24 02:05:49;;;;;;;49.90;16.50;;;;;;;-0.10;69.11;100971.84;105476;1273;276083;-58
2022/02/24 02:08:21;;;;;;;45.60;17.10;;;;;;;-0.12;69.02;100969.10;105539;1273;22882;-57
2022/02/24 02:10:52;;;;;;;47.00;17.50;;;;;;;-0.13;69.08;100966.27;105670;1273;22633;-58
2022/02/24 02:13:23;;;;;;;54.70;20.10;;;;;;;-0.14;69.17;100961.56;105514;1273;22613;-58
2022/02/24 02:15:55;;;;;;;50.80;19.00;;;;;;;-0.15;69.18;100961.10;105492;1273;22547;-57
2022/02/24 02:18:28;;;;;;;51.70;17.40;;;;;;;-0.16;69.26;100958.27;105689;1273;24422;-59
2022/02/24 02:20:59;;;;;;;52.50;19.50;;;;;;;-0.18;69.36;100957.86;105646;1272;25748;-58
2022/02/24 02:23:30;;;;;;;46.70;16.40;;;;;;;-0.20;69.42;100957.70;105566;1273;22903;-58
2022/02/24 02:26:02;;;;;;;49.90;19.10;;;;;;;-0.22;69.50;100952.83;105436;1275;22575;-58
2022/02/24 02:28:33;;;;;;;48.00;17.80;;;;;;;-0.24;69.67;100950.33;105720;1273;24447;-58
2022/02/24 02:31:05;;;;;;;44.20;17.30;;;;;;;-0.25;69.78;100951.27;105673;1273;22775;-57
2022/02/24 02:33:36;;;;;;;46.20;17.30;;;;;;;-0.26;69.81;100942.73;105713;1273;22680;-58
2022/02/24 02:36:08;;;;;;;61.20;20.90;;;;;;;-0.27;69.86;100943.27;105498;1273;22547;-57
2022/02/24 02:38:42;;;;;;;51.10;18.30;;;;;;;-0.29;70.12;100938.40;105752;1273;22547;-58
2022/02/24 02:41:13;;;;;;;56.30;18.90;;;;;;;-0.32;70.27;100935.09;105677;1273;24237;-62
2022/02/24 02:43:45;;;;;;;50.80;17.20;;;;;;;-0.34;70.09;100932.91;105678;1273;25692;-58
2022/02/24 02:46:17;;;;;;;53.00;19.20;;;;;;;-0.33;70.23;100932.13;105660;1273;22625;-56
2022/02/24 02:48:48;;;;;;;48.20;17.30;;;;;;;-0.37;70.42;100934.61;105647;1273;22580;-58
2022/02/24 02:51:19;;;;;;;42.50;16.40;;;;;;;-0.39;70.33;100932.58;105511;1273;25564;-58
2022/02/24 02:53:50;;;;;;;46.50;17.10;;;;;;;-0.40;70.16;100932.50;105548;1273;25704;-55
2022/02/24 02:56:24;;;;;;;48.10;17.30;;;;;;;-0.42;70.20;100929.20;105516;1274;25245;-58
2022/02/24 02:58:55;;;;;;;56.40;17.50;;;;;;;-0.43;70.08;100921.52;105749;1273;24272;-56
2022/02/24 03:01:26;;;;;;;52.40;17.80;;;;;;;-0.43;69.95;100919.48;105493;1273;25729;-57
2022/02/24 03:03:57;;;;;;;54.50;18.00;;;;;;;-0.43;70.00;100919.48;105509;1273;25176;-57
2022/02/24 03:06:30;;;;;;;55.50;17.90;;;;;;;-0.43;69.97;100915.01;105514;1273;24858;-56
2022/02/24 03:09:01;;;;;;;47.40;18.10;;;;;;;-0.45;70.09;100913.27;105530;1273;22571;-58
2022/02/24 03:11:32;;;;;;;49.90;18.90;;;;;;;-0.45;70.05;100914.05;105600;1273;25665;-58
2022/02/24 03:14:03;;;;;;;58.90;21.10;;;;;;;-0.46;70.09;100912.97;105554;1273;22599;-58
2022/02/24 03:16:34;;;;;;;54.00;19.00;;;;;;;-0.48;70.28;100908.73;105724;1272;25709;-58
2022/02/24 03:19:11;;;;;;;48.70;18.40;;;;;;;-0.49;70.31;100907.87;105546;1270;22682;-57
2022/02/24 03:21:42;;;;;;;51.30;19.10;;;;;;;-0.51;70.31;100901.36;105502;1273;22757;-57
2022/02/24 03:24:13;;;;;;;53.60;19.90;;;;;;;-0.54;70.44;100898.21;105506;1273;22776;-58
2022/02/24 03:26:44;;;;;;;54.00;19.70;;;;;;;-0.56;70.47;100895.38;105480;1273;25506;-56
2022/02/24 03:29:15;;;;;;;49.90;18.40;;;;;;;-0.58;70.45;100894.52;105495;1273;25586;-57
2022/02/24 03:31:47;;;;;;;49.40;18.00;;;;;;;-0.60;70.44;100891.69;105527;1273;22759;-56
2022/02/24 03:34:18;;;;;;;50.80;18.70;;;;;;;-0.60;70.50;100884.80;105616;1273;25595;-55
2022/02/24 03:36:50;;;;;;;48.60;18.50;;;;;;;-0.62;70.62;100883.55;105512;1273;22896;-58
2022/02/24 03:39:21;;;;;;;45.30;17.80;;;;;;;-0.62;70.71;100884.95;105474;1273;22674;-58
2022/02/24 03:41:52;;;;;;;52.00;18.40;;;;;;;-0.65;70.79;100880.25;105546;1273;22744;-58
2022/02/24 03:44:24;;;;;;;41.90;16.60;;;;;;;-0.66;70.87;100883.77;105588;1273;22667;-58
2022/02/24 03:46:55;;;;;;;47.00;18.40;;;;;;;-0.70;70.95;100884.31;105523;1273;22561;-58
2022/02/24 03:49:26;;;;;;;55.20;18.60;;;;;;;-0.71;71.07;100881.81;105552;1273;24315;-58
2022/02/24 03:51:57;;;;;;;53.30;15.90;;;;;;;-0.74;71.24;100880.52;105718;1273;22881;-56
2022/02/24 03:54:29;;;;;;;43.70;15.30;;;;;;;-0.77;71.50;100879.98;105701;1273;23191;-57
2022/02/24 03:57:00;;;;;;;44.60;16.20;;;;;;;-0.81;71.48;100880.04;105642;1273;22656;-58
2022/02/24 03:59:32;;;;;;;44.50;15.30;;;;;;;-0.82;71.41;100875.64;105658;1273;22556;-57
2022/02/24 04:02:04;;;;;;;41.60;14.30;;;;;;;-0.83;71.47;100871.11;105638;1273;25267;-57
2022/02/24 04:04:35;;;;;;;41.50;15.90;;;;;;;-0.83;71.67;100863.42;105684;1273;22781;-59
2022/02/24 04:07:07;;;;;;;30.60;11.60;;;;;;;-0.83;71.62;100858.11;105511;1273;22692;-56
2022/02/24 04:09:39;;;;;;;39.90;13.40;;;;;;;-0.83;71.75;100849.80;105654;1273;23123;-58
2022/02/24 04:12:13;;;;;;;38.00;13.30;;;;;;;-0.83;71.72;100843.45;105646;1273;25542;-57
2022/02/24 04:14:45;;;;;;;44.20;13.60;;;;;;;-0.84;71.91;100837.03;105743;1273;22634;-61
2022/02/24 04:17:16;;;;;;;31.50;12.90;;;;;;;-0.87;72.00;100829.35;105792;1273;25594;-57
2022/02/24 04:19:47;;;;;;;41.40;13.50;;;;;;;-0.88;71.95;100829.98;105779;1273;24847;-58
2022/02/24 04:22:18;;;;;;;35.40;12.90;;;;;;;-0.88;72.13;100823.86;105512;1273;22722;-57
2022/02/24 04:24:49;;;;;;;34.80;11.10;;;;;;;-0.89;72.08;100820.73;105493;1273;22676;-58
2022/02/24 04:27:21;;;;;;;30.20;12.00;;;;;;;-0.88;72.19;100818.86;105514;1273;22563;-58
2022/02/24 04:29:52;;;;;;;35.90;11.80;;;;;;;-0.89;72.29;100814.86;105507;1273;22889;-55
2022/02/24 04:32:23;;;;;;;35.20;11.10;;;;;;;-0.91;72.41;100810.54;105646;1272;23157;-55
2022/02/24 04:34:54;;;;;;;34.00;11.60;;;;;;;-0.93;72.40;100806.00;105569;1272;24846;-58
2022/02/24 04:37:26;;;;;;;33.10;11.40;;;;;;;-0.94;72.45;100799.34;105575;1273;23327;-58
2022/02/24 04:39:57;;;;;;;36.80;11.70;;;;;;;-0.96;72.59;100793.06;105482;1273;22643;-58
2022/02/24 04:42:28;;;;;;;34.70;11.70;;;;;;;-0.97;72.81;100792.20;105682;1273;23831;-58
2022/02/24 04:45:01;;;;;;;35.80;11.80;;;;;;;-0.99;72.83;100787.82;105523;1273;25499;-57
2022/02/24 04:47:32;;;;;;;35.50;11.10;;;;;;;-0.99;72.89;100784.30;105478;1273;22686;-58
2022/02/24 04:50:05;;;;;;;32.80;11.30;;;;;;;-1.01;73.08;100783.67;105513;1273;22662;-56
2022/02/24 04:52:36;;;;;;;41.40;11.60;;;;;;;-1.02;73.00;100784.05;105604;1273;22706;-55
2022/02/24 04:55:10;;;;;;;33.20;10.60;;;;;;;-1.02;73.06;100783.27;106026;1273;24116;-58
2022/02/24 04:57:41;;;;;;;30.20;11.90;;;;;;;-1.02;73.29;100781.31;105728;1273;25722;-57
2022/02/24 05:00:15;;;;;;;36.10;11.30;;;;;;;-1.02;73.35;100776.63;105805;1273;26036;-59
2022/02/24 05:02:47;;;;;;;37.00;10.20;;;;;;;-1.01;73.38;100777.48;105580;1273;25738;-57
2022/02/24 05:05:19;;;;;;;32.20;10.20;;;;;;;-1.00;73.43;100769.19;105652;1273;22830;-58
2022/02/24 05:07:51;;;;;;;34.10;12.60;;;;;;;-1.00;73.54;100763.16;105664;1273;26346;-57
2022/02/24 05:10:22;;;;;;;41.80;13.70;;;;;;;-1.00;73.41;100758.69;105534;1273;25676;-55
2022/02/24 05:12:55;;;;;;;33.80;9.60;;;;;;;-0.99;73.39;100756.04;105714;1273;25684;-55
2022/02/24 05:15:26;;;;;;;29.40;10.20;;;;;;;-0.97;73.44;100751.57;105677;1273;22708;-56
2022/02/24 05:17:58;;;;;;;37.50;13.20;;;;;;;-0.97;73.39;100746.39;105675;1272;25645;-56
2022/02/24 05:20:29;;;;;;;45.90;16.10;;;;;;;-0.96;73.24;100742.49;105671;1273;23835;-57
2022/02/24 05:23:00;;;;;;;45.60;18.60;;;;;;;-0.96;73.48;100739.98;105521;1273;25742;-59
2022/02/24 05:25:34;;;;;;;48.20;17.60;;;;;;;-0.98;73.41;100737.32;105516;1273;22792;-59
2022/02/24 05:28:10;;;;;;;40.30;14.70;;;;;;;-0.99;73.30;100732.77;105525;1273;22691;-57
2022/02/24 05:30:41;;;;;;;30.60;12.90;;;;;;;-1.00;73.40;100730.59;105526;1273;25603;-59
2022/02/24 05:33:15;;;;;;;35.40;10.60;;;;;;;-1.01;73.64;100729.33;105539;1273;22670;-58
2022/02/24 05:35:46;;;;;;;33.10;10.00;;;;;;;-1.02;73.60;100728.31;105492;1273;26487;-58
2022/02/24 05:38:17;;;;;;;36.60;11.70;;;;;;;-1.03;73.84;100732.93;105555;1273;22908;-58
2022/02/24 05:40:50;;;;;;;26.90;9.40;;;;;;;-1.03;73.99;100735.74;105629;1273;25653;-57
2022/02/24 05:43:22;;;;;;;23.50;8.80;;;;;;;-1.03;73.82;100726.73;105685;1273;22763;-58
2022/02/24 05:45:54;;;;;;;28.30;9.00;;;;;;;-1.01;73.73;100721.64;105476;1273;25587;-57
2022/02/24 05:48:25;;;;;;;30.70;10.20;;;;;;;-1.00;73.68;100721.59;107565;1273;24178;-55
2022/02/24 05:50:57;;;;;;;33.50;9.20;;;;;;;-0.99;73.64;100718.13;105667;1273;22644;-56
2022/02/24 05:53:28;;;;;;;31.20;9.80;;;;;;;-0.98;73.69;100720.88;105617;1273;25592;-55
2022/02/24 05:55:59;;;;;;;29.70;9.80;;;;;;;-0.99;73.82;100717.50;105572;1273;22719;-55
2022/02/24 05:58:31;;;;;;;29.00;8.00;;;;;;;-0.98;73.82;100709.98;105390;1273;24320;-59
2022/02/24 06:01:02;;;;;;;33.60;9.50;;;;;;;-0.97;73.88;100704.74;105704;1273;22767;-56
2022/02/24 06:03:33;;;;;;;34.70;10.30;;;;;;;-0.98;73.79;100704.75;105680;1273;24382;-57
2022/02/24 06:06:05;;;;;;;31.60;10.30;;;;;;;-0.98;73.95;100707.34;105747;1273;25621;-54
2022/02/24 06:08:36;;;;;;;31.50;11.50;;;;;;;-0.98;73.94;100705.23;105647;1273;25711;-57
2022/02/24 06:11:08;;;;;;;43.00;11.40;;;;;;;-0.97;74.12;100701.60;105583;1273;26517;-62
2022/02/24 06:13:40;;;;;;;28.90;11.10;;;;;;;-0.98;74.17;100694.33;105609;1273;22553;-57
2022/02/24 06:16:11;;;;;;;34.20;12.50;;;;;;;-0.98;74.16;100691.60;105560;1273;22741;-57
2022/02/24 06:18:42;;;;;;;44.10;12.30;;;;;;;-0.99;74.29;100682.20;105531;1273;25711;-57
2022/02/24 06:21:16;;;;;;;35.60;11.90;;;;;;;-0.99;74.46;100682.42;105596;1273;22819;-57
2022/02/24 06:23:48;;;;;;;38.00;10.50;;;;;;;-1.00;74.68;100679.93;105527;1273;22720;-56
2022/02/24 06:26:20;;;;;;;31.80;11.60;;;;;;;-1.00;74.83;100678.05;105573;1273;22932;-57
2022/02/24 06:28:51;;;;;;;34.70;11.30;;;;;;;-1.01;74.84;100673.20;105514;1273;22649;-56
2022/02/24 06:31:23;;;;;;;36.80;11.30;;;;;;;-1.00;75.12;100669.83;105605;1273;25785;-57
2022/02/24 06:33:54;;;;;;;38.10;11.70;;;;;;;-0.99;75.07;100670.84;105564;1273;22666;-55
2022/02/24 06:36:26;;;;;;;36.30;11.50;;;;;;;-0.96;75.10;100664.20;105513;1273;24885;-53
2022/02/24 06:38:57;;;;;;;40.50;11.90;;;;;;;-0.93;75.09;100667.86;105596;1273;23155;-56
2022/02/24 06:41:28;;;;;;;40.30;14.10;;;;;;;-0.91;75.18;100667.02;105646;1273;22692;-54
2022/02/24 06:43:59;;;;;;;39.60;12.90;;;;;;;-0.88;75.06;100662.39;105524;1273;22757;-57
2022/02/24 06:46:31;;;;;;;42.20;12.20;;;;;;;-0.84;75.17;100661.29;105767;1273;23405;-57
2022/02/24 06:49:02;;;;;;;37.50;12.60;;;;;;;-0.79;75.48;100655.58;105611;1273;25569;-58
2022/02/24 06:51:33;;;;;;;36.80;12.20;;;;;;;-0.76;75.55;100650.55;105551;1273;25598;-58
2022/02/24 06:54:05;;;;;;;39.30;13.70;;;;;;;-0.71;75.51;100648.52;105701;1273;24358;-57
2022/02/24 06:56:37;;;;;;;39.90;13.20;;;;;;;-0.67;75.49;100647.27;105702;1273;24239;-55
2022/02/24 06:59:08;;;;;;;38.50;13.20;;;;;;;-0.64;75.53;100649.45;105817;1273;24436;-54
2022/02/24 07:01:40;;;;;;;37.20;12.60;;;;;;;-0.59;75.50;100649.45;105545;1273;23644;-56
2022/02/24 07:04:12;;;;;;;35.40;13.40;;;;;;;-0.54;75.67;100648.97;105667;1273;26769;-54
2022/02/24 07:06:47;;;;;;;38.00;10.90;;;;;;;-0.50;75.72;100644.65;105523;1273;24258;-55
2022/02/24 07:09:31;;;;;;;38.00;11.70;;;;;;;-0.40;75.90;100652.39;105514;1273;26090;-57
2022/02/24 07:12:03;;;;;;;26.80;9.70;;;;;;;-0.32;75.93;100648.79;105695;1273;25696;-57
2022/02/24 07:14:35;;;;;;;28.50;8.10;;;;;;;-0.25;75.91;100647.02;105936;1273;24349;-58
2022/02/24 07:17:07;;;;;;;23.20;7.50;;;;;;;-0.18;75.87;100644.59;105778;1273;22595;-58
2022/02/24 07:19:39;;;;;;;28.20;9.30;;;;;;;-0.11;75.92;100642.21;105862;1273;26677;-57
2022/02/24 07:22:11;;;;;;;36.10;10.30;;;;;;;-0.04;75.97;100641.01;105784;1273;24221;-57
2022/02/24 07:24:43;;;;;;;34.30;10.70;;;;;;;0.05;76.04;100634.55;105813;1273;22631;-57
2022/02/24 07:27:15;;;;;;;37.60;9.30;;;;;;;0.13;76.09;100633.48;105916;1273;22710;-58
2022/02/24 07:29:46;;;;;;;27.50;9.50;;;;;;;0.21;75.98;100625.53;105714;1273;22781;-53
2022/02/24 07:32:18;;;;;;;28.90;8.00;;;;;;;0.28;76.04;100623.45;105694;1273;22744;-57
2022/02/24 07:34:50;;;;;;;32.60;8.40;;;;;;;0.35;76.08;100616.44;107869;1273;24434;-57
2022/02/24 07:37:22;;;;;;;28.50;8.40;;;;;;;0.43;76.08;100616.23;105908;1273;25439;-56
2022/02/24 07:39:54;;;;;;;24.30;7.60;;;;;;;0.51;75.98;100617.04;105829;1273;22734;-57
2022/02/24 07:42:28;;;;;;;27.10;8.60;;;;;;;0.57;75.86;100617.80;105791;1273;26046;-56
2022/02/24 07:45:01;;;;;;;30.60;8.70;;;;;;;0.63;75.88;100610.61;105986;1273;22563;-57
2022/02/24 07:47:34;;;;;;;30.70;10.20;;;;;;;0.69;75.84;100608.05;105848;1273;25521;-56
2022/02/24 07:50:13;;;;;;;35.70;9.60;;;;;;;0.75;75.88;100601.11;105820;1273;22615;-57
2022/02/24 07:52:50;;;;;;;32.60;11.00;;;;;;;0.82;75.90;100598.23;105832;1273;22538;-56
2022/02/24 07:55:22;;;;;;;34.40;11.80;;;;;;;0.89;75.94;100593.00;105857;1273;26372;-55
2022/02/24 07:57:54;;;;;;;36.70;11.00;;;;;;;0.94;76.08;100586.58;105890;1273;24832;-54
2022/02/24 08:00:26;;;;;;;30.60;9.00;;;;;;;1.00;76.07;100580.25;105897;1273;24781;-58
2022/02/24 08:02:57;;;;;;;33.40;9.70;;;;;;;1.05;75.90;100583.27;105790;1273;22648;-57
2022/02/24 08:05:28;;;;;;;32.50;9.70;;;;;;;1.09;75.91;100587.16;105711;1273;25969;-57
2022/02/24 08:08:00;;;;;;;30.00;8.70;;;;;;;1.14;76.00;100585.38;105706;1273;25504;-56
2022/02/24 08:10:31;;;;;;;35.50;9.80;;;;;;;1.20;75.97;100582.59;105740;1274;22678;-57
2022/02/24 08:13:04;;;;;;;24.80;8.80;;;;;;;1.24;75.98;100581.84;105789;1273;22548;-57
2022/02/24 08:15:35;;;;;;;27.80;9.10;;;;;;;1.31;76.03;100582.87;105830;1273;22545;-57
2022/02/24 08:18:07;;;;;;;25.30;8.10;;;;;;;1.39;75.98;100580.04;105866;1272;22557;-57
2022/02/24 08:20:39;;;;;;;30.20;9.10;;;;;;;1.47;75.97;100579.64;105826;1273;22605;-58
2022/02/24 08:23:11;;;;;;;32.70;8.30;;;;;;;1.55;75.81;100581.20;105882;1273;22576;-57
2022/02/24 08:25:42;;;;;;;25.20;8.40;;;;;;;1.62;75.96;100578.84;105849;1273;25461;-57
2022/02/24 08:28:14;;;;;;;28.10;7.80;;;;;;;1.72;75.99;100573.79;105909;1273;24274;-56
2022/02/24 08:30:46;;;;;;;19.30;5.60;;;;;;;1.81;75.94;100579.41;106017;1273;24394;-55
2022/02/24 08:33:21;;;;;;;24.60;6.40;;;;;;;1.93;75.71;100572.65;106035;1273;25393;-60
2022/02/24 08:35:52;;;;;;;23.00;5.50;;;;;;;2.05;75.50;100568.89;105885;1273;22557;-57
2022/02/24 08:38:24;;;;;;;25.00;5.40;;;;;;;2.16;75.38;100566.69;105889;1273;25659;-57
2022/02/24 08:40:56;;;;;;;20.50;5.80;;;;;;;2.25;75.35;100557.28;105831;1273;24398;-56
2022/02/24 08:43:28;;;;;;;20.50;5.50;;;;;;;2.35;75.23;100551.46;106129;1273;23685;-60
2022/02/24 08:45:59;;;;;;;31.40;6.60;;;;;;;2.46;75.10;100546.02;105830;1273;25474;-57
2022/02/24 08:48:31;;;;;;;29.50;7.00;;;;;;;2.56;75.01;100547.77;105806;1273;22558;-57
2022/02/24 08:51:02;;;;;;;28.70;7.20;;;;;;;2.64;75.05;100547.64;105744;1273;22583;-58
2022/02/24 08:53:33;;;;;;;23.40;7.20;;;;;;;2.73;75.03;100537.81;105702;1273;22540;-56
2022/02/24 08:56:06;;;;;;;24.10;6.40;;;;;;;2.83;74.87;100535.51;105644;1273;22592;-57
2022/02/24 08:58:37;;;;;;;35.00;6.40;;;;;;;2.93;74.75;100532.59;105694;1273;22544;-55
2022/02/24 09:01:09;;;;;;;20.00;5.80;;;;;;;3.06;74.50;100527.80;105629;1274;25674;-58
2022/02/24 09:03:41;;;;;;;20.40;4.30;;;;;;;3.18;74.28;100522.52;105690;1273;22542;-58
2022/02/24 09:06:13;;;;;;;19.10;4.50;;;;;;;3.35;74.21;100524.19;105739;1273;22610;-56
2022/02/24 09:08:44;;;;;;;16.10;4.90;;;;;;;3.47;73.92;100523.01;105824;1273;25285;-60
2022/02/24 09:11:17;;;;;;;19.30;4.80;;;;;;;3.56;73.80;100523.38;105595;1273;25469;-56
2022/02/24 09:13:49;;;;;;;18.10;3.80;;;;;;;3.68;73.83;100520.39;105827;1273;22551;-57
2022/02/24 09:16:20;;;;;;;23.00;4.50;;;;;;;3.79;73.64;100521.88;105877;1273;25261;-58
2022/02/24 09:18:51;;;;;;;29.40;9.50;;;;;;;3.87;73.53;100515.23;105771;1273;24412;-58
2022/02/24 09:21:23;;;;;;;38.30;10.50;;;;;;;3.94;73.66;100510.05;105620;1273;22581;-56
2022/02/24 09:23:55;;;;;;;28.90;8.80;;;;;;;3.99;73.48;100508.17;105659;1273;25376;-57
2022/02/24 09:26:26;;;;;;;36.90;9.70;;;;;;;4.08;73.32;100504.90;106005;1273;24445;-58
2022/02/24 09:28:57;;;;;;;42.40;11.20;;;;;;;4.17;73.20;100501.58;105917;1273;25611;-55
2022/02/24 09:31:29;;;;;;;26.60;8.10;;;;;;;4.23;72.95;100498.72;105903;1273;24513;-57
2022/02/24 09:34:00;;;;;;;26.20;5.00;;;;;;;4.35;72.97;100506.34;105872;1273;24366;-58
2022/02/24 09:36:31;;;;;;;20.30;4.40;;;;;;;4.47;72.77;100505.98;105810;1273;22556;-57
2022/02/24 09:39:03;;;;;;;25.40;4.70;;;;;;;4.59;72.67;100499.04;105755;1273;22570;-58
2022/02/24 09:41:35;;;;;;;22.60;3.90;;;;;;;4.71;72.45;100490.92;105748;1273;23198;-59
2022/02/24 09:44:08;;;;;;;19.40;4.60;;;;;;;4.81;72.18;100488.70;105625;1273;22544;-58
2022/02/24 09:46:41;;;;;;;18.40;4.50;;;;;;;4.92;71.99;100477.60;105707;1273;22545;-57
2022/02/24 09:49:13;;;;;;;16.70;3.70;;;;;;;5.01;71.87;100465.73;105722;1273;25440;-58
2022/02/24 09:51:45;;;;;;;17.50;3.50;;;;;;;5.12;71.75;100464.27;105771;1273;22569;-55
2022/02/24 09:54:17;;;;;;;17.10;2.10;;;;;;;5.25;71.16;100457.95;105770;1273;26686;-58
2022/02/24 09:56:50;;;;;;;19.20;3.00;;;;;;;5.42;70.66;100454.86;105767;1273;25398;-56
2022/02/24 09:59:24;;;;;;;17.50;3.60;;;;;;;5.57;70.54;100457.13;105800;1273;24305;-57
2022/02/24 10:01:56;;;;;;;23.40;3.60;;;;;;;5.65;70.32;100446.59;106036;1273;22712;-57
2022/02/24 10:04:29;;;;;;;16.50;2.60;;;;;;;5.72;70.11;100440.84;105993;1272;24236;-57
2022/02/24 10:07:00;;;;;;;13.60;2.00;;;;;;;5.79;69.81;100439.56;105790;1273;23853;-55
2022/02/24 10:09:34;;;;;;;10.80;1.60;;;;;;;5.87;69.16;100430.23;105771;1273;23850;-55
2022/02/24 10:12:11;;;;;;;13.50;2.50;;;;;;;5.95;69.17;100423.96;105648;1273;25324;-61
2022/02/24 10:14:42;;;;;;;16.20;2.50;;;;;;;6.04;69.41;100417.05;105662;1273;22566;-57
2022/02/24 10:17:17;;;;;;;18.90;3.40;;;;;;;6.08;69.26;100408.90;105584;1273;22569;-58
2022/02/24 10:19:49;;;;;;;14.90;3.00;;;;;;;6.12;68.89;100403.63;105645;1273;22676;-57
2022/02/24 10:22:25;;;;;;;11.40;1.70;;;;;;;6.17;68.51;100402.76;106149;1273;22541;-55
2022/02/24 10:24:59;;;;;;;15.70;2.80;;;;;;;6.24;68.36;100397.46;105756;1273;24532;-60
2022/02/24 10:27:32;;;;;;;12.40;2.40;;;;;;;6.28;68.20;100393.54;105732;1273;25344;-59
2022/02/24 10:30:07;;;;;;;12.90;2.30;;;;;;;6.34;67.92;100392.38;105695;1273;24286;-59
2022/02/24 10:32:40;;;;;;;17.80;3.20;;;;;;;6.43;67.70;100390.08;105730;1273;24466;-59
2022/02/24 10:35:29;;;;;;;16.70;3.50;;;;;;;6.45;67.65;100381.52;105870;1273;22556;-59
2022/02/24 10:38:03;;;;;;;21.60;4.20;;;;;;;6.46;67.56;100372.55;106038;1273;22572;-57
2022/02/24 10:40:37;;;;;;;22.90;4.80;;;;;;;6.50;67.36;100363.64;105786;1273;22572;-58
2022/02/24 10:43:22;;;;;;;14.80;3.60;;;;;;;6.57;67.39;100357.46;105681;1273;22566;-60
2022/02/24 10:46:03;;;;;;;27.10;3.70;;;;;;;6.64;67.74;100354.50;105694;1273;22607;-60
2022/02/24 10:48:50;;;;;;;18.80;3.50;;;;;;;6.69;67.61;100350.45;105929;1273;22550;-59
2022/02/24 10:51:26;;;;;;;22.10;4.70;;;;;;;6.78;67.32;100339.34;105796;1273;22563;-60
2022/02/24 10:54:06;;;;;;;18.70;4.60;;;;;;;6.83;67.08;100332.33;105675;1273;22546;-58
2022/02/24 10:56:40;;;;;;;18.10;3.60;;;;;;;6.87;66.81;100324.73;105972;1273;24118;-59
2022/02/24 10:59:30;;;;;;;18.60;4.80;;;;;;;6.90;66.65;100318.05;105674;1273;22553;-61
2022/02/24 11:02:10;;;;;;;22.20;5.10;;;;;;;6.95;66.47;100310.50;105593;1273;22574;-60
2022/02/24 11:04:43;;;;;;;18.60;4.10;;;;;;;7.01;66.37;100310.05;105923;1273;25382;-60
2022/02/24 11:07:18;;;;;;;26.40;6.20;;;;;;;7.03;66.26;100305.80;105897;1273;22595;-59
2022/02/24 11:09:49;;;;;;;26.00;7.00;;;;;;;7.05;66.25;100304.79;105872;1273;22542;-59
2022/02/24 11:12:28;;;;;;;26.50;7.90;;;;;;;7.07;66.40;100297.35;105582;1273;22666;-59
2022/02/24 11:15:02;;;;;;;21.60;5.20;;;;;;;7.09;66.19;100287.67;105536;1273;25258;-64
2022/02/24 11:17:33;;;;;;;23.80;5.40;;;;;;;7.14;66.20;100279.48;105751;1273;25371;-60
2022/02/24 11:20:15;;;;;;;15.70;4.40;;;;;;;7.20;65.86;100279.95;105579;1273;25370;-60
2022/02/24 11:22:50;;;;;;;25.50;5.40;;;;;;;7.27;65.65;100281.73;105902;1273;25346;-60
2022/02/24 11:25:28;;;;;;;16.90;2.90;;;;;;;7.31;65.55;100272.21;105795;1273;24231;-60
2022/02/24 11:28:02;;;;;;;16.20;3.20;;;;;;;7.36;65.48;100266.88;105712;1273;25553;-59
2022/02/24 11:30:35;;;;;;;15.40;2.70;;;;;;;7.39;65.16;100260.34;105870;1273;22564;-60
2022/02/24 11:33:07;;;;;;;12.30;2.70;;;;;;;7.45;64.85;100256.31;105806;1273;22540;-59